sensor_id;sensor_type;location;lat;lon;timestamp;pressure;altitude;pressure_sealevel;temperature;humidity
51603;BME280;37954;51.980;5.850;2023-02-19T00:03:40;101381.69;;;10.82;99.08
51603;BME280;37954;51.980;5.850;2023-02-19T00:07:51;101379.81;;;10.76;98.85
51603;BME280;37954;51.980;5.850;2023-02-19T00:12:03;101370.53;;;10.72;98.84
51603;BME280;37954;51.980;5.850;2023-02-19T00:16:15;101372.41;;;10.72;98.86
51603;BME280;37954;51.980;5.850;2023-02-19T00:20:27;101375.69;;;10.74;98.83
51603;BME280;37954;51.980;5.850;2023-02-19T00:24:39;101386.03;;;10.70;99.37
51603;BME280;37954;51.980;5.850;2023-02-19T00:28:51;101381.06;;;10.74;99.45
51603;BME280;37954;51.980;5.850;2023-02-19T00:33:03;101392.44;;;10.76;99.27
51603;BME280;37954;51.980;5.850;2023-02-19T00:37:15;101379.00;;;10.69;99.78
51603;BME280;37954;51.980;5.850;2023-02-19T00:41:27;101374.25;;;10.71;99.51
51603;BME280;37954;51.980;5.850;2023-02-19T00:45:39;101375.69;;;10.74;99.55
51603;BME280;37954;51.980;5.850;2023-02-19T00:49:50;101387.06;;;10.76;99.45
51603;BME280;37954;51.980;5.850;2023-02-19T00:54:03;101393.25;;;10.76;99.66
51603;BME280;37954;51.980;5.850;2023-02-19T00:58:15;101378.19;;;10.62;99.74
51603;BME280;37954;51.980;5.850;2023-02-19T01:02:27;101377.16;;;10.63;99.98
51603;BME280;37954;51.980;5.850;2023-02-19T01:06:39;101391.63;;;10.69;99.87
51603;BME280;37954;51.980;5.850;2023-02-19T01:10:52;101379.84;;;10.63;99.69
51603;BME280;37954;51.980;5.850;2023-02-19T01:15:04;101383.56;;;10.62;100.00
51603;BME280;37954;51.980;5.850;2023-02-19T01:19:15;101385.00;;;10.58;100.00
51603;BME280;37954;51.980;5.850;2023-02-19T01:23:27;101393.25;;;10.57;100.00
51603;BME280;37954;51.980;5.850;2023-02-19T01:27:38;101398.22;;;10.60;100.00
51603;BME280;37954;51.980;5.850;2023-02-19T01:31:50;101399.25;;;10.59;100.00
51603;BME280;37954;51.980;5.850;2023-02-19T01:36:03;101400.91;;;10.60;100.00
51603;BME280;37954;51.980;5.850;2023-02-19T01:40:16;101399.91;;;10.54;100.00
51603;BME280;37954;51.980;5.850;2023-02-19T01:48:40;101399.91;;;10.54;100.00
51603;BME280;37954;51.980;5.850;2023-02-19T01:52:51;101402.38;;;10.56;100.00
51603;BME280;37954;51.980;5.850;2023-02-19T01:57:06;101413.53;;;10.59;100.00
51603;BME280;37954;51.980;5.850;2023-02-19T02:01:19;101409.63;;;10.55;99.96
51603;BME280;37954;51.980;5.850;2023-02-19T02:05:40;101416.66;;;10.56;100.00
51603;BME280;37954;51.980;5.850;2023-02-19T02:09:55;101402.38;;;10.49;100.00
51603;BME280;37954;51.980;5.850;2023-02-19T02:14:29;101409.63;;;10.55;99.83
51603;BME280;37954;51.980;5.850;2023-02-19T02:27:29;101425.31;;;10.52;99.97
51603;BME280;37954;51.980;5.850;2023-02-19T02:31:53;101399.66;;;10.42;100.00
51603;BME280;37954;51.980;5.850;2023-02-19T02:36:19;101411.25;;;10.43;99.70
51603;BME280;37954;51.980;5.850;2023-02-19T02:40:32;101406.91;;;10.42;99.73
51603;BME280;37954;51.980;5.850;2023-02-19T02:44:45;101401.13;;;10.38;99.74
51603;BME280;37954;51.980;5.850;2023-02-19T02:49:20;101409.19;;;10.38;99.86
51603;BME280;37954;51.980;5.850;2023-02-19T02:53:40;101417.03;;;10.33;99.65
51603;BME280;37954;51.980;5.850;2023-02-19T02:58:12;101428.59;;;10.34;99.59
51603;BME280;37954;51.980;5.850;2023-02-19T03:02:29;101425.50;;;10.30;99.86
51603;BME280;37954;51.980;5.850;2023-02-19T03:06:43;101422.81;;;10.30;99.91
51603;BME280;37954;51.980;5.850;2023-02-19T03:11:10;101425.50;;;10.30;99.78
51603;BME280;37954;51.980;5.850;2023-02-19T03:15:47;101437.25;;;10.29;99.62
51603;BME280;37954;51.980;5.850;2023-02-19T03:20:21;101430.66;;;10.32;99.81
51603;BME280;37954;51.980;5.850;2023-02-19T03:24:37;101439.75;;;10.31;99.96
51603;BME280;37954;51.980;5.850;2023-02-19T03:29:10;101440.78;;;10.30;99.96
51603;BME280;37954;51.980;5.850;2023-02-19T03:33:47;101455.47;;;10.34;99.82
51603;BME280;37954;51.980;5.850;2023-02-19T03:42:35;101469.09;;;10.39;99.67
51603;BME280;37954;51.980;5.850;2023-02-19T03:46:54;101473.66;;;10.38;99.73
51603;BME280;37954;51.980;5.850;2023-02-19T03:56:04;101457.69;;;10.24;100.00
51603;BME280;37954;51.980;5.850;2023-02-19T04:04:53;101482.94;;;10.36;99.70
51603;BME280;37954;51.980;5.850;2023-02-19T04:09:08;101489.34;;;10.35;99.64
51603;BME280;37954;51.980;5.850;2023-02-19T04:13:35;101494.50;;;10.36;99.90
51603;BME280;37954;51.980;5.850;2023-02-19T04:17:54;101501.75;;;10.36;99.64
51603;BME280;37954;51.980;5.850;2023-02-19T04:22:07;101494.06;;;10.26;99.93
51603;BME280;37954;51.980;5.850;2023-02-19T04:26:21;101495.91;;;10.26;99.99
51603;BME280;37954;51.980;5.850;2023-02-19T04:30:33;101505.44;;;10.28;99.77
51603;BME280;37954;51.980;5.850;2023-02-19T04:34:44;101513.88;;;10.19;99.90
51603;BME280;37954;51.980;5.850;2023-02-19T04:38:56;101516.94;;;10.16;99.82
51603;BME280;37954;51.980;5.850;2023-02-19T04:43:08;101530.53;;;10.14;99.96
51603;BME280;37954;51.980;5.850;2023-02-19T04:47:19;101528.25;;;10.11;99.76
51603;BME280;37954;51.980;5.850;2023-02-19T04:51:31;101554.78;;;10.21;100.00
51603;BME280;37954;51.980;5.850;2023-02-19T04:55:43;101548.50;;;10.13;99.95
51603;BME280;37954;51.980;5.850;2023-02-19T04:59:54;101562.38;;;10.17;99.76
51603;BME280;37954;51.980;5.850;2023-02-19T05:04:06;101567.06;;;10.08;99.63
51603;BME280;37954;51.980;5.850;2023-02-19T05:08:18;101565.81;;;10.04;99.77
51603;BME280;37954;51.980;5.850;2023-02-19T05:12:30;101583.59;;;10.12;99.63
51603;BME280;37954;51.980;5.850;2023-02-19T05:16:41;101574.69;;;10.05;99.72
51603;BME280;37954;51.980;5.850;2023-02-19T05:20:53;101591.66;;;10.12;99.79
51603;BME280;37954;51.980;5.850;2023-02-19T05:25:05;101576.78;;;10.09;99.82
51603;BME280;37954;51.980;5.850;2023-02-19T05:29:16;101588.97;;;10.12;99.59
51603;BME280;37954;51.980;5.850;2023-02-19T05:33:28;101582.53;;;10.06;99.80
51603;BME280;37954;51.980;5.850;2023-02-19T05:37:40;101599.72;;;10.12;99.85
51603;BME280;37954;51.980;5.850;2023-02-19T05:41:51;101599.91;;;10.10;99.82
51603;BME280;37954;51.980;5.850;2023-02-19T05:46:03;101595.56;;;10.09;99.69
51603;BME280;37954;51.980;5.850;2023-02-19T05:50:15;101587.91;;;10.06;99.43
51603;BME280;37954;51.980;5.850;2023-02-19T05:54:28;101606.50;;;10.08;99.28
51603;BME280;37954;51.980;5.850;2023-02-19T05:58:39;101602.78;;;10.02;99.04
51603;BME280;37954;51.980;5.850;2023-02-19T06:02:51;101612.75;;;10.15;99.04
51603;BME280;37954;51.980;5.850;2023-02-19T06:07:03;101624.72;;;10.12;98.87
51603;BME280;37954;51.980;5.850;2023-02-19T06:11:15;101618.69;;;10.04;98.69
51603;BME280;37954;51.980;5.850;2023-02-19T06:15:28;101616.00;;;10.04;98.69
51603;BME280;37954;51.980;5.850;2023-02-19T06:19:40;101626.50;;;10.05;98.88
51603;BME280;37954;51.980;5.850;2023-02-19T06:23:53;101624.16;;;9.89;98.96
51603;BME280;37954;51.980;5.850;2023-02-19T06:33:10;101660.13;;;9.95;99.03
51603;BME280;37954;51.980;5.850;2023-02-19T06:37:21;101671.50;;;9.97;98.90
51603;BME280;37954;51.980;5.850;2023-02-19T06:41:33;101669.19;;;9.94;98.60
51603;BME280;37954;51.980;5.850;2023-02-19T06:45:44;101675.13;;;9.89;99.28
51603;BME280;37954;51.980;5.850;2023-02-19T06:49:56;101680.00;;;10.00;99.17
51603;BME280;37954;51.980;5.850;2023-02-19T06:54:08;101668.56;;;9.92;98.78
51603;BME280;37954;51.980;5.850;2023-02-19T06:58:19;101693.78;;;9.97;98.79
51603;BME280;37954;51.980;5.850;2023-02-19T07:02:31;101688.22;;;9.99;98.77
51603;BME280;37954;51.980;5.850;2023-02-19T07:06:42;101701.28;;;10.08;98.72
51603;BME280;37954;51.980;5.850;2023-02-19T07:10:55;101709.50;;;10.00;98.54
51603;BME280;37954;51.980;5.850;2023-02-19T07:15:08;101713.84;;;10.01;98.77
51603;BME280;37954;51.980;5.850;2023-02-19T07:19:20;101724.97;;;9.98;98.42
51603;BME280;37954;51.980;5.850;2023-02-19T07:23:31;101722.69;;;9.95;98.53
51603;BME280;37954;51.980;5.850;2023-02-19T07:27:43;101739.03;;;10.00;98.66
51603;BME280;37954;51.980;5.850;2023-02-19T07:31:55;101731.94;;;9.93;98.32
51603;BME280;37954;51.980;5.850;2023-02-19T07:36:07;101749.13;;;9.98;98.49
51603;BME280;37954;51.980;5.850;2023-02-19T07:40:18;101749.59;;;10.02;98.36
51603;BME280;37954;51.980;5.850;2023-02-19T07:44:30;101766.53;;;10.02;98.71
51603;BME280;37954;51.980;5.850;2023-02-19T07:48:42;101773.13;;;10.06;98.57
51603;BME280;37954;51.980;5.850;2023-02-19T07:52:54;101776.63;;;10.00;98.52
51603;BME280;37954;51.980;5.850;2023-02-19T07:57:06;101763.41;;;9.99;98.52
51603;BME280;37954;51.980;5.850;2023-02-19T08:01:20;101788.03;;;10.09;98.47
51603;BME280;37954;51.980;5.850;2023-02-19T08:05:50;101784.91;;;10.05;98.39
51603;BME280;37954;51.980;5.850;2023-02-19T08:10:04;101784.78;;;10.13;98.38
51603;BME280;37954;51.980;5.850;2023-02-19T08:14:34;101792.69;;;10.22;98.58
51603;BME280;37954;51.980;5.850;2023-02-19T08:18:47;101804.59;;;10.34;98.42
51603;BME280;37954;51.980;5.850;2023-02-19T08:22:59;101809.16;;;10.40;98.21
51603;BME280;37954;51.980;5.850;2023-02-19T08:27:10;101810.06;;;10.47;97.99
51603;BME280;37954;51.980;5.850;2023-02-19T08:31:21;101815.59;;;10.39;97.82
51603;BME280;37954;51.980;5.850;2023-02-19T08:35:34;101824.50;;;10.46;97.71
51603;BME280;37954;51.980;5.850;2023-02-19T08:39:46;101823.03;;;10.43;97.44
51603;BME280;37954;51.980;5.850;2023-02-19T09:42:22;101920.13;;;10.90;93.94
51603;BME280;37954;51.980;5.850;2023-02-19T09:46:48;101931.91;;;10.89;93.67
51603;BME280;37954;51.980;5.850;2023-02-19T09:51:01;101940.16;;;10.87;93.55
51603;BME280;37954;51.980;5.850;2023-02-19T10:13:28;101990.22;;;11.85;91.85
51603;BME280;37954;51.980;5.850;2023-02-19T10:17:41;101993.00;;;11.70;90.81
51603;BME280;37954;51.980;5.850;2023-02-19T10:21:53;101989.25;;;11.58;90.32
51603;BME280;37954;51.980;5.850;2023-02-19T10:26:07;101999.50;;;11.41;89.38
51603;BME280;37954;51.980;5.850;2023-02-19T10:30:22;102007.16;;;11.44;89.39
51603;BME280;37954;51.980;5.850;2023-02-19T10:34:34;102022.47;;;11.44;89.18
51603;BME280;37954;51.980;5.850;2023-02-19T10:38:46;102020.31;;;11.33;89.21
51603;BME280;37954;51.980;5.850;2023-02-19T10:43:02;102010.56;;;11.25;89.39
51603;BME280;37954;51.980;5.850;2023-02-19T10:47:17;102036.22;;;11.28;89.68
51603;BME280;37954;51.980;5.850;2023-02-19T10:51:37;102018.13;;;11.15;90.03
51603;BME280;37954;51.980;5.850;2023-02-19T10:56:10;102039.91;;;11.20;90.33
51603;BME280;37954;51.980;5.850;2023-02-19T11:00:25;102042.19;;;11.23;90.27
51603;BME280;37954;51.980;5.850;2023-02-19T11:04:37;102036.41;;;11.26;90.52
51603;BME280;37954;51.980;5.850;2023-02-19T11:08:52;102028.16;;;11.28;90.30
51603;BME280;37954;51.980;5.850;2023-02-19T11:13:06;102004.94;;;11.20;89.87
51603;BME280;37954;51.980;5.850;2023-02-19T11:17:27;102013.03;;;11.27;90.12
51603;BME280;37954;51.980;5.850;2023-02-19T11:21:40;102014.03;;;11.19;89.96
51603;BME280;37954;51.980;5.850;2023-02-19T11:25:53;102005.59;;;11.29;90.25
51603;BME280;37954;51.980;5.850;2023-02-19T11:34:40;102022.09;;;11.19;90.30
51603;BME280;37954;51.980;5.850;2023-02-19T11:38:53;102021.59;;;11.37;90.46
51603;BME280;37954;51.980;5.850;2023-02-19T11:43:33;102032.50;;;11.63;90.40
51603;BME280;37954;51.980;5.850;2023-02-19T11:48:09;102048.66;;;11.91;90.26
51603;BME280;37954;51.980;5.850;2023-02-19T11:56:56;102049.88;;;11.89;88.75
51603;BME280;37954;51.980;5.850;2023-02-19T12:01:22;102046.72;;;11.78;88.06
51603;BME280;37954;51.980;5.850;2023-02-19T12:06:05;102039.56;;;11.64;87.46
51603;BME280;37954;51.980;5.850;2023-02-19T12:15:18;102042.44;;;11.56;87.21
51603;BME280;37954;51.980;5.850;2023-02-19T12:37:35;102053.25;;;11.07;88.19
51603;BME280;37954;51.980;5.850;2023-02-19T12:42:00;102038.56;;;11.09;88.21
51603;BME280;37954;51.980;5.850;2023-02-19T12:46:38;102024.88;;;11.04;88.47
51603;BME280;37954;51.980;5.850;2023-02-19T12:50:54;102063.72;;;11.23;88.83
51603;BME280;37954;51.980;5.850;2023-02-19T12:55:27;102061.13;;;11.36;88.58
51603;BME280;37954;51.980;5.850;2023-02-19T13:00:02;102076.50;;;11.42;89.13
51603;BME280;37954;51.980;5.850;2023-02-19T13:04:32;102057.56;;;11.57;89.06
51603;BME280;37954;51.980;5.850;2023-02-19T13:08:53;102072.88;;;11.57;88.84
51603;BME280;37954;51.980;5.850;2023-02-19T13:13:27;102079.84;;;11.51;88.23
51603;BME280;37954;51.980;5.850;2023-02-19T13:17:44;102092.28;;;11.52;88.32
51603;BME280;37954;51.980;5.850;2023-02-19T13:22:32;102113.81;;;11.52;88.38
51603;BME280;37954;51.980;5.850;2023-02-19T13:40:23;102115.41;;;11.19;88.48
51603;BME280;37954;51.980;5.850;2023-02-19T13:44:38;102127.25;;;11.24;88.67
51603;BME280;37954;51.980;5.850;2023-02-19T13:57:52;102139.72;;;11.10;88.61
51603;BME280;37954;51.980;5.850;2023-02-19T14:02:07;102141.34;;;11.05;88.73
51603;BME280;37954;51.980;5.850;2023-02-19T14:06:20;102144.34;;;10.95;88.39
51603;BME280;37954;51.980;5.850;2023-02-19T14:23:56;102174.47;;;10.69;88.34
51603;BME280;37954;51.980;5.850;2023-02-19T14:32:20;102169.84;;;10.49;87.78
51603;BME280;37954;51.980;5.850;2023-02-19T14:36:42;102165.41;;;10.41;87.54
51603;BME280;37954;51.980;5.850;2023-02-19T14:40:55;102155.16;;;10.30;87.59
51603;BME280;37954;51.980;5.850;2023-02-19T14:45:08;102148.84;;;10.23;87.69
51603;BME280;37954;51.980;5.850;2023-02-19T14:49:26;102156.53;;;10.26;87.51
51603;BME280;37954;51.980;5.850;2023-02-19T14:53:42;102142.63;;;10.22;87.27
51603;BME280;37954;51.980;5.850;2023-02-19T14:57:57;102134.97;;;10.19;87.23
51603;BME280;37954;51.980;5.850;2023-02-19T15:02:15;102115.88;;;10.14;86.63
51603;BME280;37954;51.980;5.850;2023-02-19T15:06:33;102110.88;;;10.11;86.60
51603;BME280;37954;51.980;5.850;2023-02-19T15:10:45;102109.19;;;10.10;86.23
51603;BME280;37954;51.980;5.850;2023-02-19T15:15:00;102123.63;;;10.09;86.13
51603;BME280;37954;51.980;5.850;2023-02-19T15:19:14;102108.06;;;10.04;85.81
51603;BME280;37954;51.980;5.850;2023-02-19T15:23:28;102117.91;;;9.97;85.86
51603;BME280;37954;51.980;5.850;2023-02-19T15:27:41;102135.50;;;10.00;86.02
51603;BME280;37954;51.980;5.850;2023-02-19T15:31:55;102145.66;;;10.04;86.29
51603;BME280;37954;51.980;5.850;2023-02-19T15:36:08;102140.94;;;10.06;86.00
51603;BME280;37954;51.980;5.850;2023-02-19T15:40:25;102161.34;;;10.01;86.17
51603;BME280;37954;51.980;5.850;2023-02-19T15:44:42;102175.47;;;9.80;85.79
51603;BME280;37954;51.980;5.850;2023-02-19T15:53:28;102183.88;;;9.77;86.38
51603;BME280;37954;51.980;5.850;2023-02-19T15:57:44;102188.59;;;9.75;86.64
51603;BME280;37954;51.980;5.850;2023-02-19T16:01:58;102187.72;;;9.60;86.50
51603;BME280;37954;51.980;5.850;2023-02-19T16:06:13;102187.72;;;9.60;86.38
51603;BME280;37954;51.980;5.850;2023-02-19T16:10:25;102190.72;;;9.65;86.73
51603;BME280;37954;51.980;5.850;2023-02-19T16:14:36;102192.38;;;9.66;86.70
51603;BME280;37954;51.980;5.850;2023-02-19T16:18:49;102185.69;;;9.62;86.48
51603;BME280;37954;51.980;5.850;2023-02-19T16:23:12;102223.13;;;9.55;86.48
51603;BME280;37954;51.980;5.850;2023-02-19T16:27:33;102236.38;;;9.57;86.41
51603;BME280;37954;51.980;5.850;2023-02-19T16:31:51;102227.09;;;9.45;86.60
51603;BME280;37954;51.980;5.850;2023-02-19T16:45:06;102244.31;;;9.27;86.37
51603;BME280;37954;51.980;5.850;2023-02-19T16:49:18;102252.38;;;9.19;86.45
51603;BME280;37954;51.980;5.850;2023-02-19T16:53:31;102240.00;;;9.18;86.44
51603;BME280;37954;51.980;5.850;2023-02-19T16:57:43;102234.53;;;9.12;86.78
51603;BME280;37954;51.980;5.850;2023-02-19T17:01:55;102249.41;;;9.14;86.76
51603;BME280;37954;51.980;5.850;2023-02-19T17:06:07;102267.84;;;9.17;86.73
51603;BME280;37954;51.980;5.850;2023-02-19T17:10:21;102264.00;;;9.12;86.86
51603;BME280;37954;51.980;5.850;2023-02-19T17:14:33;102251.78;;;9.09;87.28
51603;BME280;37954;51.980;5.850;2023-02-19T17:18:44;102261.19;;;9.05;87.11
51603;BME280;37954;51.980;5.850;2023-02-19T17:22:56;102249.34;;;8.99;86.97
51603;BME280;37954;51.980;5.850;2023-02-19T17:27:11;102263.38;;;9.01;87.10
51603;BME280;37954;51.980;5.850;2023-02-19T17:31:23;102260.09;;;8.91;87.21
51603;BME280;37954;51.980;5.850;2023-02-19T17:35:35;102276.16;;;8.91;87.47
51603;BME280;37954;51.980;5.850;2023-02-19T17:39:47;102260.66;;;8.79;87.51
51603;BME280;37954;51.980;5.850;2023-02-19T17:43:59;102263.69;;;8.76;87.92
51603;BME280;37954;51.980;5.850;2023-02-19T17:48:12;102256.47;;;8.76;87.79
51603;BME280;37954;51.980;5.850;2023-02-19T17:52:24;102274.06;;;8.70;88.06
51603;BME280;37954;51.980;5.850;2023-02-19T17:56:35;102276.91;;;8.69;88.24
51603;BME280;37954;51.980;5.850;2023-02-19T18:00:47;102273.44;;;8.60;88.16
51603;BME280;37954;51.980;5.850;2023-02-19T18:04:59;102295.38;;;8.64;88.33
51603;BME280;37954;51.980;5.850;2023-02-19T18:09:10;102294.03;;;8.60;88.43
51603;BME280;37954;51.980;5.850;2023-02-19T18:13:25;102289.19;;;8.55;88.26
51603;BME280;37954;51.980;5.850;2023-02-19T18:17:37;102296.22;;;8.56;88.27
51603;BME280;37954;51.980;5.850;2023-02-19T18:21:48;102291.69;;;8.57;88.35
51603;BME280;37954;51.980;5.850;2023-02-19T18:26:00;102289.41;;;8.46;88.30
51603;BME280;37954;51.980;5.850;2023-02-19T18:30:12;102296.91;;;8.50;88.32
51603;BME280;37954;51.980;5.850;2023-02-19T18:34:27;102289.53;;;8.52;88.15
51603;BME280;37954;51.980;5.850;2023-02-19T18:38:38;102284.34;;;8.51;88.39
51603;BME280;37954;51.980;5.850;2023-02-19T18:42:50;102291.25;;;8.45;87.94
51603;BME280;37954;51.980;5.850;2023-02-19T18:47:02;102279.19;;;8.41;87.93
51603;BME280;37954;51.980;5.850;2023-02-19T18:51:13;102271.00;;;8.34;87.74
51603;BME280;37954;51.980;5.850;2023-02-19T18:55:25;102271.50;;;8.30;87.66
51603;BME280;37954;51.980;5.850;2023-02-19T18:59:38;102289.06;;;8.32;87.56
51603;BME280;37954;51.980;5.850;2023-02-19T19:03:50;102293.06;;;8.28;87.08
51603;BME280;37954;51.980;5.850;2023-02-19T19:08:02;102300.59;;;8.25;87.10
51603;BME280;37954;51.980;5.850;2023-02-19T19:12:14;102280.34;;;8.14;86.84
51603;BME280;37954;51.980;5.850;2023-02-19T19:16:27;102292.94;;;8.14;86.71
51603;BME280;37954;51.980;5.850;2023-02-19T19:20:39;102300.78;;;8.07;86.74
51603;BME280;37954;51.980;5.850;2023-02-19T19:24:51;102302.28;;;8.01;86.71
51603;BME280;37954;51.980;5.850;2023-02-19T19:29:02;102295.78;;;7.88;86.29
51603;BME280;37954;51.980;5.850;2023-02-19T19:33:14;102279.41;;;7.75;86.21
51603;BME280;37954;51.980;5.850;2023-02-19T19:37:28;102278.88;;;7.71;86.22
51603;BME280;37954;51.980;5.850;2023-02-19T19:41:40;102300.63;;;7.68;86.08
51603;BME280;37954;51.980;5.850;2023-02-19T19:45:51;102307.28;;;7.56;86.01
51603;BME280;37954;51.980;5.850;2023-02-19T19:50:03;102310.94;;;7.47;86.26
51603;BME280;37954;51.980;5.850;2023-02-19T19:54:15;102312.25;;;7.34;86.31
51603;BME280;37954;51.980;5.850;2023-02-19T19:58:26;102295.81;;;7.13;86.54
51603;BME280;37954;51.980;5.850;2023-02-19T20:02:38;102309.84;;;7.15;86.60
51603;BME280;37954;51.980;5.850;2023-02-19T20:06:52;102317.03;;;7.07;86.87
51603;BME280;37954;51.980;5.850;2023-02-19T20:11:03;102294.75;;;6.90;87.27
51603;BME280;37954;51.980;5.850;2023-02-19T20:15:20;102314.97;;;6.92;87.04
51603;BME280;37954;51.980;5.850;2023-02-19T20:19:32;102312.94;;;6.86;87.35
51603;BME280;37954;51.980;5.850;2023-02-19T20:23:43;102303.72;;;6.81;87.66
51603;BME280;37954;51.980;5.850;2023-02-19T20:27:55;102300.66;;;6.76;88.02
51603;BME280;37954;51.980;5.850;2023-02-19T20:32:06;102288.81;;;6.70;87.91
51603;BME280;37954;51.980;5.850;2023-02-19T20:36:18;102286.78;;;6.64;87.84
51603;BME280;37954;51.980;5.850;2023-02-19T20:40:30;102288.22;;;6.58;88.33
51603;BME280;37954;51.980;5.850;2023-02-19T20:44:43;102300.94;;;6.56;88.55
51603;BME280;37954;51.980;5.850;2023-02-19T20:48:55;102315.44;;;6.54;88.25
51603;BME280;37954;51.980;5.850;2023-02-19T20:53:06;102316.44;;;6.53;88.67
51603;BME280;37954;51.980;5.850;2023-02-19T20:57:18;102315.22;;;6.47;88.52
51603;BME280;37954;51.980;5.850;2023-02-19T21:01:29;102304.31;;;6.41;88.96
51603;BME280;37954;51.980;5.850;2023-02-19T21:05:41;102305.50;;;6.38;88.78
51603;BME280;37954;51.980;5.850;2023-02-19T21:09:53;102306.63;;;6.36;88.88
51603;BME280;37954;51.980;5.850;2023-02-19T21:14:05;102297.41;;;6.30;88.90
51603;BME280;37954;51.980;5.850;2023-02-19T21:18:17;102290.03;;;6.24;88.80
51603;BME280;37954;51.980;5.850;2023-02-19T21:22:30;102281.00;;;6.17;88.75
51603;BME280;37954;51.980;5.850;2023-02-19T21:26:42;102285.25;;;6.10;88.82
51603;BME280;37954;51.980;5.850;2023-02-19T21:30:54;102294.25;;;6.09;88.90
51603;BME280;37954;51.980;5.850;2023-02-19T21:35:06;102278.91;;;6.03;88.67
51603;BME280;37954;51.980;5.850;2023-02-19T21:39:19;102284.09;;;6.04;89.34
51603;BME280;37954;51.980;5.850;2023-02-19T21:43:31;102277.84;;;5.96;89.33
51603;BME280;37954;51.980;5.850;2023-02-19T21:47:42;102271.81;;;5.93;89.27
51603;BME280;37954;51.980;5.850;2023-02-19T21:51:54;102283.31;;;5.94;89.38
51603;BME280;37954;51.980;5.850;2023-02-19T21:56:05;102273.09;;;5.89;89.41
51603;BME280;37954;51.980;5.850;2023-02-19T22:00:17;102284.47;;;5.91;89.70
51603;BME280;37954;51.980;5.850;2023-02-19T22:04:29;102285.59;;;5.89;89.88
51603;BME280;37954;51.980;5.850;2023-02-19T22:08:40;102291.25;;;5.86;89.60
51603;BME280;37954;51.980;5.850;2023-02-19T22:12:52;102293.38;;;5.82;89.67
51603;BME280;37954;51.980;5.850;2023-02-19T22:17:03;102286.44;;;5.72;89.67
51603;BME280;37954;51.980;5.850;2023-02-19T22:21:15;102287.13;;;5.74;89.68
51603;BME280;37954;51.980;5.850;2023-02-19T22:25:27;102289.28;;;5.70;89.83
51603;BME280;37954;51.980;5.850;2023-02-19T22:29:39;102283.94;;;5.70;89.68
51603;BME280;37954;51.980;5.850;2023-02-19T22:33:51;102289.41;;;5.69;89.70
51603;BME280;37954;51.980;5.850;2023-02-19T22:38:03;102280.19;;;5.63;89.79
51603;BME280;37954;51.980;5.850;2023-02-19T22:42:15;102267.47;;;5.57;90.17
51603;BME280;37954;51.980;5.850;2023-02-19T22:46:28;102268.47;;;5.56;89.95
51603;BME280;37954;51.980;5.850;2023-02-19T22:50:40;102239.00;;;5.40;90.19
51603;BME280;37954;51.980;5.850;2023-02-19T22:54:55;102264.59;;;5.50;90.39
51603;BME280;37954;51.980;5.850;2023-02-19T22:59:07;102267.25;;;5.50;90.54
51603;BME280;37954;51.980;5.850;2023-02-19T23:03:18;102272.75;;;5.49;90.32
51603;BME280;37954;51.980;5.850;2023-02-19T23:07:30;102265.19;;;5.44;90.41
51603;BME280;37954;51.980;5.850;2023-02-19T23:11:41;102252.84;;;5.43;90.97
51603;BME280;37954;51.980;5.850;2023-02-19T23:15:53;102246.25;;;5.47;91.17
51603;BME280;37954;51.980;5.850;2023-02-19T23:20:05;102237.66;;;5.53;91.14
51603;BME280;37954;51.980;5.850;2023-02-19T23:24:16;102226.16;;;5.53;91.32
51603;BME280;37954;51.980;5.850;2023-02-19T23:28:28;102237.69;;;5.62;91.47
51603;BME280;37954;51.980;5.850;2023-02-19T23:32:40;102197.81;;;5.52;91.73
51603;BME280;37954;51.980;5.850;2023-02-19T23:36:52;102232.91;;;5.65;91.80
51603;BME280;37954;51.980;5.850;2023-02-19T23:41:09;102242.97;;;5.71;91.81
51603;BME280;37954;51.980;5.850;2023-02-19T23:45:21;102239.97;;;5.74;92.20
51603;BME280;37954;51.980;5.850;2023-02-19T23:49:33;102232.66;;;5.76;92.42
51603;BME280;37954;51.980;5.850;2023-02-19T23:53:44;102245.91;;;5.86;92.55
51603;BME280;37954;51.980;5.850;2023-02-19T23:57:56;102221.91;;;5.86;92.31
